Meadows Field
KBFL : now visible

Airfield :











YOU CAN JOIN US ON...

 
LOGIN :

Register | Disclaimer

   EN    FR    IT 

 









Legend :    VFR   Marginal VFR   IFR   Intensive IFR   Very Intensive IFR
Visi :
Ceiling :
>= 8 km
>= 3000ft
5 to 8 km
1000 to 3000 ft
1500m to 5 km
500 to 1000 ft
800 to 1500m
200 to 500 ft
< 800m
< 200 ft
Symbols :   Thunderstorms  Fog  Heavy snow  Heavy precipitations  Wind > 20 kt







- Airport Elevation : 510 ft
- IATA code : BFL


KBFL - Meadows Field

CURRENT METAR :
  • 210954Z AUTO 00000KT 10SM CLR 13/08 A2991 RMK AO2 SLP126 T01280083

EXPIRED METARs :
  • 210854Z AUTO 00000KT 10SM FEW065 14/09 A2993 RMK AO2 SLP132 T01390089 57011
  • 210754Z AUTO 00000KT 10SM BKN065 14/09 A2994 RMK AO2 SLP135 T01440089 402060111

TAF KBFL
Valid from the 21 at 06:00 until the 22 at 06:00 UTC


210520Z 2106/2206 30010KT P6SM SCT050 BKN120
FM211200 33012KT P6SM BKN040
TEMPO 2116/2120 -RA
FM212000 31010KT P6SM -RA BKN040
TEMPO 2122/2202 5SM RA BKN030
KZLA FIR / North America



MET'MAP, your aeronautical weather chart ! - Copyright ORBIFLY December 2007 - Disclaimer

ORBIFLY MET'MAP TEAM :

Programming & Development : Alexandra Zaïnal
Concept & Development : Baudouin d'Aumeries
Co-Development & Prog : Marc-Olivier Méhu
Technical & hardware support : Manuel Goepfert

Contact : metmap@orbifly.com




SOURCES & CREDITS :

   NOAA       Earth
Advisory